Airfield :
LOGIN :

Register | Disclaimer

   EN    FR    IT 

 










Legend :    VFR   Marginal VFR   IFR   Intensive IFR   Very Intensive IFR
Visi :
Ceiling :
>= 8 km
>= 3000ft
5 to 8 km
1000 to 3000 ft
1500m to 5 km
500 to 1000 ft
800 to 1500m
200 to 500 ft
< 800m
< 200 ft
Symbols :   Thunderstorms  Fog  Heavy snow  Heavy precipitations  Wind > 20 kt
SIGMETs :     Misc.  Thunderstorms  Icing  Turbulence  Mountain Waves  Volcanic Ashes






- Airport Elevation : 39 ft
- IATA code : CTA


LICC - Catania Fontanarossa

CURRENT METAR :
  • 282220Z 25007KT 9999 FEW030 SCT100 12/10 Q1007

EXPIRED METARs :
  • 282150Z 26010KT 9000 FEW030 13/10 Q1007
  • 282050Z 27012KT 9999 FEW020 BKN050 14/11 Q1007
  • 282020Z 27009KT 8000 SCT020 BKN110 14/10 Q1007
  • 281950Z 25007KT 8000 SCT020 BKN120 14/12 Q1006
  • 281920Z 23005KT 5000 BR BKN020 15/14 Q1006
  • 281850Z VRB02KT 4000 BR BKN012 16/14 Q1006
  • 281820Z VRB04KT 4000 BR FEW010 SCT020 BKN060 16/14 Q1005
  • 281750Z 08004KT 030V120 4000 BR SCT010 BKN060 16/14 Q1005
  • 281720Z 04008KT 4000 BR FEW020 BKN050 16/14 Q1005

TAF TAF LICC
Valid from the 28 at 18:00 until the 29 at 18:00 UTC


281700Z 2818/2918 27010KT 9999 SCT020 BKN050
PROB40
TEMPO 2818/2820 SHRA
PROB30
TEMPO 2915/2918 TSRA



MET'MAP, your aeronautical weather chart ! - Copyright ORBIFLY December 2007 - Disclaimer

ORBIFLY MET'MAP TEAM :

Programming & Development : Alexandra Zaïnal
Original concept : Baudouin d'Aumeries
Technical & hardware support : Manuel Goepfert
Assistance : Marc-Olivier Méhu




SOURCES & CREDITS :

   NOAA